createdAt,value
2022-12-01T00:01:01.841Z,101117.72
2022-12-01T02:20:56.197Z,101172.69
2022-12-01T02:23:39.083Z,101175.50
2022-12-01T02:26:13.160Z,101185.34
2022-12-01T02:28:56.518Z,101190.78
2022-12-01T02:31:48.959Z,101190.00
2022-12-01T02:34:58.281Z,101179.53
2022-12-01T02:38:17.147Z,101183.28
2022-12-01T02:40:53.759Z,101195.66
2022-12-01T02:43:33.940Z,101193.97
2022-12-01T02:46:23.278Z,101194.13
2022-12-01T02:48:55.347Z,101194.25
2022-12-01T02:51:31.709Z,101197.91
2022-12-01T02:54:02.917Z,101196.13
2022-12-01T02:56:31.499Z,101195.25
2022-12-01T02:59:00.053Z,101195.34
2022-12-01T03:01:34.527Z,101201.69
2022-12-01T03:04:20.829Z,101207.09
2022-12-01T03:07:31.006Z,101214.25
2022-12-01T03:10:08.424Z,101210.00
2022-12-01T03:12:54.139Z,101210.06
2022-12-01T03:15:47.059Z,101211.91
2022-12-01T03:18:39.578Z,101217.22
2022-12-01T03:21:33.071Z,101221.78
2022-12-01T03:24:10.154Z,101227.16
2022-12-01T03:26:41.985Z,101223.69
2022-12-01T03:29:16.839Z,101221.91
2022-12-01T03:31:51.166Z,101221.03
2022-12-01T03:35:01.507Z,101226.38
2022-12-01T03:37:37.440Z,101221.19
2022-12-01T03:40:11.657Z,101219.50
2022-12-01T03:42:46.743Z,101221.31
2022-12-01T03:45:32.912Z,101226.66
2022-12-01T03:48:01.788Z,101229.41
2022-12-01T03:50:42.473Z,101231.28
2022-12-01T03:53:21.380Z,101227.81
2022-12-01T03:55:57.144Z,101225.22
2022-12-01T03:58:35.064Z,101234.16
2022-12-01T04:01:08.743Z,101230.69
2022-12-01T04:03:37.114Z,101233.38
2022-12-01T04:06:06.093Z,101228.19
2022-12-01T04:08:34.819Z,101221.19
2022-12-01T04:11:22.949Z,101220.28
2022-12-01T04:13:51.259Z,101218.56
2022-12-01T04:16:19.799Z,101222.13
2022-12-01T04:18:48.200Z,101219.47
2022-12-01T04:21:16.497Z,101215.94
2022-12-01T04:24:02.959Z,101215.09
2022-12-01T04:26:34.234Z,101223.97
2022-12-01T04:29:04.024Z,101228.41
2022-12-01T04:31:32.947Z,101232.00
2022-12-01T04:34:01.898Z,101232.88
2022-12-01T04:36:33.326Z,101228.44
2022-12-01T04:39:02.111Z,101229.38
2022-12-01T04:41:30.598Z,101220.59
2022-12-01T04:43:59.045Z,101227.69
2022-12-01T04:46:27.745Z,101225.06
2022-12-01T04:48:55.992Z,101246.28
2022-12-01T04:51:24.501Z,101252.47
2022-12-01T04:53:52.840Z,101249.81
2022-12-01T04:56:21.264Z,101256.00
2022-12-01T04:58:49.761Z,101260.41
2022-12-01T05:01:19.803Z,101252.50
2022-12-01T05:03:52.499Z,101252.53
2022-12-01T05:06:24.198Z,101252.56
2022-12-01T05:08:55.397Z,101244.66
2022-12-01T05:11:24.942Z,101243.81
2022-12-01T05:13:53.461Z,101232.41
2022-12-01T05:16:25.487Z,101238.56
2022-12-01T05:19:14.612Z,101238.56
2022-12-01T05:21:44.319Z,101235.06
2022-12-01T05:24:14.111Z,101231.56
2022-12-01T05:26:44.989Z,101229.84
2022-12-01T05:29:14.241Z,101231.59
2022-12-01T05:31:43.233Z,101228.09
2022-12-01T05:34:11.531Z,101231.59
2022-12-01T05:36:39.874Z,101236.84
2022-12-01T05:39:08.299Z,101225.34
2022-12-01T05:41:36.664Z,101230.63
2022-12-01T05:44:08.029Z,101227.06
2022-12-01T05:46:36.346Z,101229.75
2022-12-01T05:49:04.674Z,101218.34
2022-12-01T05:51:32.964Z,101212.25
2022-12-01T05:54:02.339Z,101218.47
2022-12-01T05:56:30.689Z,101216.69
2022-12-01T05:58:59.186Z,101215.78
2022-12-01T06:01:27.655Z,101219.31
2022-12-01T06:03:56.082Z,101215.81
2022-12-01T06:06:24.440Z,101212.31
2022-12-01T06:08:52.760Z,101220.25
2022-12-01T06:11:21.115Z,101210.56
2022-12-01T06:13:49.457Z,101215.06
2022-12-01T06:16:17.987Z,101215.13
2022-12-01T06:18:46.425Z,101217.69
2022-12-01T06:21:14.899Z,101221.09
2022-12-01T06:23:43.359Z,101218.34
2022-12-01T06:26:11.714Z,101202.41
2022-12-01T06:28:40.188Z,101197.06
2022-12-01T06:31:08.475Z,101201.34
2022-12-01T06:33:36.774Z,101195.13
2022-12-01T06:36:07.865Z,101194.19
2022-12-01T06:38:38.615Z,101190.66
2022-12-01T06:41:07.559Z,101181.81
2022-12-01T06:43:39.224Z,101184.34
2022-12-01T06:46:07.933Z,101190.50
2022-12-01T06:48:36.521Z,101178.13
2022-12-01T06:51:05.310Z,101179.75
2022-12-01T06:53:33.804Z,101176.16
2022-12-01T06:56:06.854Z,101179.63
2022-12-01T06:58:35.704Z,101180.50
2022-12-01T07:01:10.719Z,101171.75
2022-12-01T07:03:39.699Z,101170.03
2022-12-01T07:06:08.089Z,101162.09
2022-12-01T07:08:36.959Z,101160.28
2022-12-01T07:11:11.952Z,101156.75
2022-12-01T07:13:41.150Z,101147.06
2022-12-01T07:16:10.652Z,101142.66
2022-12-01T07:18:39.664Z,101136.53
2022-12-01T07:21:11.551Z,101126.88
2022-12-01T07:23:40.308Z,101121.56
2022-12-01T07:26:14.379Z,101124.22
2022-12-01T07:28:43.552Z,101124.16
2022-12-01T07:31:15.163Z,101121.47
2022-12-01T07:33:44.013Z,101123.19
2022-12-01T07:36:13.493Z,101126.75
2022-12-01T07:38:42.919Z,101121.47
2022-12-01T07:41:16.217Z,101127.56
2022-12-01T07:43:44.498Z,101110.84
2022-12-01T07:46:21.816Z,101106.34
2022-12-01T07:48:51.635Z,101103.75
2022-12-01T07:51:20.701Z,101104.66
2022-12-01T07:53:51.066Z,101096.72
2022-12-01T07:56:20.677Z,101085.28
2022-12-01T07:58:49.140Z,101093.19
2022-12-01T08:01:22.654Z,101102.84
2022-12-01T08:03:56.007Z,101086.13
2022-12-01T08:06:26.103Z,101085.28
2022-12-01T08:08:54.644Z,101084.34
2022-12-01T08:11:25.506Z,101078.97
2022-12-01T08:13:55.199Z,101085.97
2022-12-01T08:16:25.579Z,101092.06
2022-12-01T08:18:54.275Z,101098.19
2022-12-01T08:21:25.155Z,101092.03
2022-12-01T08:23:58.721Z,101095.53
2022-12-01T08:26:28.664Z,101087.59
2022-12-01T08:28:58.747Z,101089.38
2022-12-01T08:31:33.013Z,101078.81
2022-12-01T08:34:01.476Z,101079.69
2022-12-01T08:36:29.937Z,101077.94
2022-12-01T08:38:58.264Z,101077.00
2022-12-01T08:41:27.289Z,101068.16
2022-12-01T08:43:58.916Z,101066.38
2022-12-01T08:46:35.309Z,101071.66
2022-12-01T08:49:05.802Z,101060.22
2022-12-01T08:51:35.079Z,101075.16
2022-12-01T08:54:03.862Z,101068.06
2022-12-01T08:56:38.562Z,101060.13
2022-12-01T08:59:06.544Z,101056.53
2022-12-01T09:01:35.125Z,101043.25
2022-12-01T09:04:09.283Z,101058.19
2022-12-01T09:06:43.503Z,101053.78
2022-12-01T09:09:14.945Z,101067.03
2022-12-01T09:11:47.062Z,101066.97
2022-12-01T09:14:17.495Z,101057.28
2022-12-01T09:16:47.744Z,101053.66
2022-12-01T09:19:20.612Z,101054.53
2022-12-01T09:21:52.353Z,101051.81
2022-12-01T09:24:20.673Z,101043.81
2022-12-01T09:26:49.161Z,101038.47
2022-12-01T09:29:18.579Z,101037.50
2022-12-01T09:31:47.011Z,101038.34
2022-12-01T09:34:20.780Z,101044.44
2022-12-01T09:36:49.471Z,101053.19
2022-12-01T09:39:20.819Z,101049.59
2022-12-01T09:41:57.460Z,101045.09
2022-12-01T09:44:41.515Z,101042.38
2022-12-01T09:47:25.317Z,101032.66
2022-12-01T09:50:08.031Z,101039.78
2022-12-01T09:52:50.918Z,101042.50
2022-12-01T09:55:22.380Z,101044.28
2022-12-01T09:57:56.001Z,101042.56
2022-12-01T10:00:33.164Z,101048.72
2022-12-01T10:03:25.152Z,101044.28
2022-12-01T10:06:26.788Z,101035.47
2022-12-01T10:09:19.224Z,101032.78
2022-12-01T10:11:49.298Z,101031.88
2022-12-01T10:14:22.085Z,101030.09
2022-12-01T10:17:01.900Z,101033.72
2022-12-01T10:19:45.469Z,101018.81
2022-12-01T10:22:22.269Z,101029.47
2022-12-01T10:25:12.509Z,101008.34
2022-12-01T10:27:48.664Z,101014.56
2022-12-01T10:30:24.498Z,101010.16
2022-12-01T10:33:12.322Z,101004.00
2022-12-01T10:35:41.311Z,101003.19
2022-12-01T10:38:21.839Z,101002.31
2022-12-01T10:40:51.798Z,101004.00
2022-12-01T10:43:20.349Z,101007.50
2022-12-01T10:45:48.869Z,101005.78
2022-12-01T10:48:23.039Z,101007.44
2022-12-01T10:50:53.927Z,101001.25
2022-12-01T10:53:25.439Z,101007.34
2022-12-01T10:56:11.869Z,101013.50
2022-12-01T10:58:48.940Z,100997.63
2022-12-01T11:01:32.079Z,101001.25
2022-12-01T11:04:24.344Z,100998.53
2022-12-01T11:06:53.144Z,101001.09
2022-12-01T11:09:26.561Z,101000.09
2022-12-01T11:12:05.144Z,100983.44
2022-12-01T11:14:53.335Z,100976.38
2022-12-01T11:17:30.277Z,100968.41
2022-12-01T11:19:58.694Z,100972.75
2022-12-01T11:22:31.064Z,100978.03
2022-12-01T11:25:05.421Z,100978.81
2022-12-01T11:27:50.922Z,100972.63
2022-12-01T11:30:27.710Z,100982.34
2022-12-01T11:33:00.188Z,100979.66
2022-12-01T11:35:33.359Z,100986.66
2022-12-01T11:38:28.930Z,100986.66
2022-12-01T11:40:55.546Z,100995.44
2022-12-01T11:43:46.731Z,100991.88
2022-12-01T11:46:29.000Z,100997.94
2022-12-01T11:49:01.634Z,100987.41
2022-12-01T11:51:38.911Z,100980.31
2022-12-01T11:54:27.865Z,100976.75
2022-12-01T11:57:31.881Z,100972.34
2022-12-01T11:59:44.984Z,100972.38
2022-12-01T12:02:22.170Z,100970.66
2022-12-01T12:05:19.199Z,100974.06
2022-12-01T12:08:06.656Z,100959.91
2022-12-01T12:10:57.322Z,100950.19
2022-12-01T12:13:47.387Z,100960.81
2022-12-01T12:16:36.817Z,100951.97
2022-12-01T12:19:22.438Z,100951.97
2022-12-01T12:22:08.939Z,100937.81
2022-12-01T12:25:14.218Z,100943.97
2022-12-01T12:28:01.139Z,100942.09
2022-12-01T12:30:42.604Z,100937.66
2022-12-01T12:33:24.297Z,100919.22
2022-12-01T12:36:33.783Z,100927.16
2022-12-01T12:39:23.075Z,100912.16
2022-12-01T12:41:55.524Z,100915.66
2022-12-01T12:44:41.784Z,100909.50
2022-12-01T12:47:40.823Z,100908.63
2022-12-01T12:50:27.359Z,100912.19
2022-12-01T12:53:04.961Z,100907.78
2022-12-01T12:55:45.309Z,100910.53
2022-12-01T12:58:25.144Z,100899.03
2022-12-01T13:01:24.874Z,100897.31
2022-12-01T13:04:00.780Z,100886.66
2022-12-01T13:06:32.187Z,100883.97
2022-12-01T13:09:24.798Z,100885.72
2022-12-01T13:12:16.824Z,100872.50
2022-12-01T13:14:55.193Z,100865.38
2022-12-01T13:17:41.184Z,100867.09
2022-12-01T13:20:16.987Z,100874.13
2022-12-01T13:22:47.086Z,100871.41
2022-12-01T13:25:28.161Z,100863.41
2022-12-01T13:28:00.031Z,100863.31
2022-12-01T13:30:28.729Z,100853.59
2022-12-01T13:33:05.481Z,100880.91
2022-12-01T13:35:37.802Z,100884.41
2022-12-01T13:38:23.163Z,100873.81
2022-12-01T13:41:11.018Z,100880.97
2022-12-01T13:43:55.068Z,100875.66
2022-12-01T13:46:51.624Z,100881.81
2022-12-01T13:49:45.948Z,100895.94
2022-12-01T13:52:23.301Z,100889.78
2022-12-01T13:55:10.273Z,100905.66
2022-12-01T13:58:09.794Z,100903.97
2022-12-01T14:00:38.739Z,100899.56
2022-12-01T14:03:21.997Z,100894.31
2022-12-01T14:06:20.854Z,100899.59
2022-12-01T14:09:07.069Z,100891.66
2022-12-01T14:11:36.505Z,100897.81
2022-12-01T14:14:10.717Z,100889.91
2022-12-01T14:16:55.659Z,100891.69
2022-12-01T14:19:35.455Z,100889.94
2022-12-01T14:22:05.897Z,100896.16
2022-12-01T14:24:42.435Z,100890.88
2022-12-01T14:27:12.985Z,100893.44
2022-12-01T14:29:45.328Z,100893.34
2022-12-01T14:32:21.754Z,100887.13
2022-12-01T14:34:54.421Z,100888.06
2022-12-01T14:37:26.921Z,100884.50
2022-12-01T14:40:00.205Z,100890.66
2022-12-01T14:42:59.072Z,100887.19
2022-12-01T14:46:07.311Z,100881.81
2022-12-01T14:48:47.356Z,100888.91
2022-12-01T14:51:27.339Z,100890.66
2022-12-01T14:53:58.422Z,100895.06
2022-12-01T14:56:27.844Z,100902.13
2022-12-01T14:59:02.110Z,100888.91
2022-12-01T15:01:39.048Z,100886.31
2022-12-01T15:04:07.839Z,100880.22
2022-12-01T15:06:37.876Z,100870.66
2022-12-01T15:09:32.372Z,100865.53
2022-12-01T15:12:01.718Z,100862.19
2022-12-01T15:14:37.741Z,100862.25
2022-12-01T15:17:09.780Z,100856.97
2022-12-01T15:19:40.679Z,100846.47
2022-12-01T15:22:15.780Z,100850.97
2022-12-01T15:24:45.464Z,100867.78
2022-12-01T15:27:34.270Z,100856.38
2022-12-01T15:30:05.359Z,100855.50
2022-12-01T15:32:38.860Z,100850.28
2022-12-01T15:35:18.222Z,100856.44
2022-12-01T15:37:47.598Z,100855.47
2022-12-01T15:43:16.876Z,100853.50
2022-12-01T15:46:00.119Z,100846.38
2022-12-01T15:48:37.940Z,100848.22
2022-12-01T15:51:20.186Z,100839.47
2022-12-01T15:53:55.071Z,100843.09
2022-12-01T15:56:33.278Z,100848.41
2022-12-01T15:59:10.277Z,100859.03
2022-12-01T16:01:39.572Z,100857.28
2022-12-01T16:04:19.064Z,100866.16
2022-12-01T16:07:09.635Z,100867.06
2022-12-01T16:09:43.391Z,100862.59
2022-12-01T16:12:24.493Z,100865.25
2022-12-01T16:14:55.030Z,100855.63
2022-12-01T16:17:25.149Z,100846.84
2022-12-01T16:20:25.789Z,100854.88
2022-12-01T16:23:02.797Z,100864.53
2022-12-01T16:25:46.830Z,100870.66
2022-12-01T16:28:36.793Z,100878.59
2022-12-01T16:31:09.126Z,100868.00
2022-12-01T16:33:40.058Z,100875.97
2022-12-01T16:36:08.988Z,100885.63
2022-12-01T16:38:37.475Z,100879.31
2022-12-01T16:41:18.066Z,100890.72
2022-12-01T16:43:59.444Z,100899.41
2022-12-01T16:46:35.513Z,100902.81
2022-12-01T16:49:03.880Z,100907.13
2022-12-01T16:51:54.172Z,100907.03
2022-12-01T16:54:20.799Z,100915.81
2022-12-01T16:56:50.418Z,100902.59
2022-12-01T16:59:18.759Z,100895.56
2022-12-01T17:01:47.098Z,100905.25
2022-12-01T17:04:15.659Z,100898.06
2022-12-01T17:06:44.030Z,100898.91
2022-12-01T17:09:12.318Z,100892.66
2022-12-01T17:11:40.574Z,100890.78
2022-12-01T17:14:09.270Z,100891.53
2022-12-01T17:16:38.106Z,100897.59
2022-12-01T17:19:06.699Z,100900.06
2022-12-01T17:21:35.079Z,100901.75
2022-12-01T17:24:03.383Z,100911.34
2022-12-01T17:26:31.703Z,100913.00
2022-12-01T17:29:00.013Z,100919.19
2022-12-01T17:31:28.532Z,100918.25
2022-12-01T17:33:56.994Z,100929.59
2022-12-01T17:36:25.460Z,100926.91
2022-12-01T17:38:53.939Z,100927.75
2022-12-01T17:41:24.846Z,100925.09
2022-12-01T17:43:53.407Z,100926.78
2022-12-01T17:46:21.873Z,100922.28
2022-12-01T17:48:50.754Z,100919.50
2022-12-01T17:51:19.073Z,100908.84
2022-12-01T17:53:47.680Z,100915.06
2022-12-01T17:56:18.563Z,100903.56
2022-12-01T17:58:46.922Z,100911.50
2022-12-01T18:01:18.058Z,100907.00
2022-12-01T18:03:47.384Z,100902.50
2022-12-01T18:06:17.419Z,100924.50
2022-12-01T18:08:46.059Z,100909.41
2022-12-01T18:11:17.470Z,100908.41
2022-12-01T18:13:50.912Z,100910.94
2022-12-01T18:16:37.521Z,100919.75
2022-12-01T18:19:05.951Z,100942.63
2022-12-01T18:21:34.269Z,100950.56
2022-12-01T18:24:04.897Z,100967.47
2022-12-01T18:26:35.019Z,100990.75
2022-12-01T18:29:09.921Z,101021.22
2022-12-01T18:31:38.993Z,101039.91
2022-12-01T18:34:08.510Z,101041.78
2022-12-01T18:36:39.709Z,101049.09
2022-12-01T18:39:10.308Z,101046.59
2022-12-01T18:41:39.160Z,101050.19
2022-12-01T18:44:07.873Z,101044.00
2022-12-01T18:46:36.418Z,101042.13
2022-12-01T18:49:05.649Z,101041.94
2022-12-01T18:51:36.222Z,101033.84
2022-12-01T18:54:06.398Z,101024.22
2022-12-01T18:56:35.174Z,101012.66
2022-12-01T18:59:06.910Z,100996.75
2022-12-01T19:01:46.068Z,100996.56
2022-12-01T19:04:16.081Z,101006.03
2022-12-01T19:06:46.564Z,100997.09
2022-12-01T19:09:18.579Z,101001.41
2022-12-01T19:11:47.239Z,100993.34
2022-12-01T19:14:18.642Z,100997.72
2022-12-01T19:16:47.644Z,101003.81
2022-12-01T19:19:16.200Z,101003.84
2022-12-01T19:21:46.109Z,101002.03
2022-12-01T19:24:14.758Z,101005.50
2022-12-01T19:26:43.209Z,100999.22
2022-12-01T19:29:11.512Z,101001.75
2022-12-01T19:31:40.125Z,101004.28
2022-12-01T19:34:08.598Z,101002.47
2022-12-01T19:36:36.964Z,101005.13
2022-12-01T19:39:07.611Z,101013.94
2022-12-01T19:41:36.455Z,101016.53
2022-12-01T19:44:04.836Z,101022.72
2022-12-01T19:46:33.152Z,101024.44
2022-12-01T19:49:02.682Z,101018.19
2022-12-01T19:51:39.526Z,101011.06
2022-12-01T19:54:13.909Z,101016.47
2022-12-01T19:56:42.304Z,101020.22
2022-12-01T19:59:12.515Z,101014.09
2022-12-01T20:01:41.886Z,101003.84
2022-12-01T20:04:10.423Z,100993.53
2022-12-01T20:06:39.164Z,100985.78
2022-12-01T20:09:08.888Z,100986.91
2022-12-01T20:11:37.784Z,100982.63
2022-12-01T20:14:08.669Z,100984.44
2022-12-01T20:16:37.793Z,100996.75
2022-12-01T20:19:07.871Z,100997.50
2022-12-01T20:21:44.019Z,100992.16
2022-12-01T20:24:18.299Z,100983.38
2022-12-01T20:26:50.305Z,100994.78
2022-12-01T20:29:20.382Z,100991.13
2022-12-01T20:31:50.571Z,101003.31
2022-12-01T20:34:38.701Z,101005.84
2022-12-01T20:37:07.219Z,101004.00
2022-12-01T20:39:38.696Z,100997.03
2022-12-01T20:42:07.062Z,100990.22
2022-12-01T20:44:35.724Z,100989.66
2022-12-01T20:47:04.789Z,100995.34
2022-12-01T20:49:33.646Z,100991.16
2022-12-01T20:52:02.087Z,100991.34
2022-12-01T20:54:31.805Z,100990.59
2022-12-01T20:57:00.566Z,100993.44
2022-12-01T20:59:29.827Z,100992.69
2022-12-01T21:01:58.243Z,100988.31
2022-12-01T21:04:26.600Z,100985.69
2022-12-01T21:06:59.419Z,100983.88
2022-12-01T21:09:28.139Z,100992.69
2022-12-01T21:12:18.222Z,100998.84
2022-12-01T21:14:54.304Z,101005.13
2022-12-01T21:17:41.147Z,101012.22
2022-12-01T21:20:32.776Z,101014.13
2022-12-01T21:23:12.690Z,101006.91
2022-12-01T21:25:42.765Z,100997.97
2022-12-01T21:28:25.761Z,100993.34
2022-12-01T21:31:03.378Z,100981.75
2022-12-01T21:33:40.029Z,100988.75
2022-12-01T21:36:23.393Z,100986.94
2022-12-01T21:38:56.830Z,100981.56
2022-12-01T21:41:32.146Z,100992.00
2022-12-01T21:44:18.559Z,100986.63
2022-12-01T21:46:48.827Z,100991.88
2022-12-01T21:49:21.404Z,100997.25
2022-12-01T21:51:53.028Z,100993.66
2022-12-01T21:54:23.229Z,100999.88
2022-12-01T21:56:58.560Z,101010.47
2022-12-01T21:59:27.038Z,101019.31
2022-12-01T22:01:57.975Z,101030.88
2022-12-01T22:04:31.450Z,101031.81
2022-12-01T22:07:00.443Z,101026.59
2022-12-01T22:09:32.764Z,101025.69
2022-12-01T22:12:27.186Z,101024.06
2022-12-01T22:15:02.110Z,101019.84
2022-12-01T22:17:31.139Z,101024.31
2022-12-01T22:20:02.467Z,101007.66
2022-12-01T22:22:33.628Z,101012.94
2022-12-01T22:25:26.736Z,101011.28
2022-12-01T22:27:55.500Z,101024.59
2022-12-01T22:30:25.415Z,101033.66
2022-12-01T22:32:54.078Z,101036.34
2022-12-01T22:35:40.209Z,101033.72
2022-12-01T22:38:09.660Z,101040.69
2022-12-01T22:40:39.391Z,101053.09
2022-12-01T22:43:28.208Z,101045.38
2022-12-01T22:46:22.921Z,101055.97
2022-12-01T22:48:53.799Z,101063.97
2022-12-01T22:51:37.459Z,101071.03
2022-12-01T22:54:11.713Z,101079.88
2022-12-01T22:56:47.052Z,101074.66
2022-12-01T22:59:29.206Z,101068.50
2022-12-01T23:01:59.618Z,101074.69
2022-12-01T23:04:32.189Z,101078.19
2022-12-01T23:07:04.987Z,101064.06
2022-12-01T23:09:44.550Z,101057.00
2022-12-01T23:12:12.935Z,101070.31
2022-12-01T23:14:53.365Z,101067.66
2022-12-01T23:17:29.445Z,101066.81
2022-12-01T23:20:27.039Z,101076.50
2022-12-01T23:23:00.194Z,101077.38
2022-12-01T23:25:29.383Z,101090.53
2022-12-01T23:28:01.828Z,101102.84
2022-12-01T23:30:30.270Z,101095.81
2022-12-01T23:33:22.447Z,101097.53
2022-12-01T23:36:12.254Z,101097.53
2022-12-01T23:38:43.634Z,101095.72
2022-12-01T23:41:25.499Z,101081.56
2022-12-01T23:43:56.978Z,101090.38
2022-12-01T23:46:28.285Z,101094.75
2022-12-01T23:49:11.043Z,101098.28
2022-12-01T23:51:45.317Z,101101.81
2022-12-01T23:54:34.625Z,101107.97
2022-12-01T23:57:24.822Z,101124.75
2022-12-01T23:59:57.280Z,101130.91
